Time;durP1;ratioP1;P1;durP2;ratioP2;P2;SDS_P1;SDS_P2;PMS_P1;PMS_P2;Temp;Humidity;BMP_temperature;BMP_pressure;BME280_temperature;BME280_humidity;BME280_pressure;Samples;Min_cycle;Max_cycle;Signal;HPM_P1;HPM_P2
2021/11/23 00:01:48;;;;;;;3.30;1.90;;;;;;;3.90;89.20;102100.27;102424;1317;61373;-76
2021/11/23 00:05:28;;;;;;;;;;;;;;;;;;;;;
2021/11/23 00:08:24;;;;;;;5.50;2.80;;;;;;;3.91;88.83;102098.50;102449;1316;75255;-76
2021/11/23 00:11:10;;;;;;;8.70;2.30;;;;;;;3.91;88.80;102096.59;102597;1315;72893;-77
2021/11/23 00:13:56;;;;;;;4.70;1.90;;;;;;;3.89;88.92;102098.27;102608;1315;73065;-79
2021/11/23 00:17:06;;;;;;;;;;;;;;;;;;;;;
2021/11/23 00:20:28;;;;;;;4.40;2.10;;;;;;;3.85;88.77;102095.16;102719;1315;61231;-78
2021/11/23 00:23:39;;;;;;;;;;;;;;;;;;;;;
2021/11/23 00:26:34;;;;;;;5.70;2.00;;;;;;;3.80;88.82;102087.46;102543;1315;72267;-77
2021/11/23 00:29:33;;;;;;;3.90;1.90;;;;;;;3.75;88.98;102079.56;102631;1316;73390;-79
2021/11/23 00:32:51;;;;;;;;;;;;;;;;;;;;;
2021/11/23 00:36:09;;;;;;;;;;;;;;;;;;;;;
2021/11/23 00:39:06;;;;;;;;;;;;;;;;;;;;;
2021/11/23 00:42:16;;;;;;;6.80;2.30;;;;;;;3.55;89.88;102071.84;102690;1316;71991;-77
2021/11/23 00:45:04;;;;;;;7.30;2.40;;;;;;;3.54;90.10;102070.34;102512;1316;74012;-77
2021/11/23 00:47:35;;;;;;;5.90;2.50;;;;;;;3.51;89.98;102069.66;102615;1316;61401;-77
2021/11/23 00:50:49;;;;;;;5.70;2.90;;;;;;;3.47;90.14;102063.94;102508;1316;61827;-76
2021/11/23 00:53:35;;;;;;;9.70;3.30;;;;;;;3.42;89.94;102050.77;102684;1315;76021;-76
2021/11/23 00:56:44;;;;;;;;;;;;;;;;;;;;;
2021/11/23 01:00:11;;;;;;;5.40;2.40;;;;;;;3.28;90.40;102032.61;102548;1316;73688;-76
2021/11/23 01:03:32;;;;;;;6.90;3.20;;;;;;;3.22;91.10;102035.25;102423;1316;61497;-76
2021/11/23 01:06:07;;;;;;;7.10;3.10;;;;;;;3.16;91.24;102041.58;102620;1316;61258;-77
2021/11/23 01:09:24;;;;;;;;;;;;;;;;;;;;;
2021/11/23 01:12:13;;;;;;;;;;;;;;;;;;;;;
2021/11/23 01:17:54;;;;;;;4.90;2.60;;;;;;;2.87;91.65;102043.29;102362;1316;61481;-76
2021/11/23 01:21:12;;;;;;;;;;;;;;;;;;;;;
2021/11/23 01:24:21;;;;;;;6.70;2.90;;;;;;;2.78;91.97;102045.60;102687;1315;74473;-78
2021/11/23 01:27:33;;;;;;;6.00;2.90;;;;;;;2.74;92.28;102045.67;102582;1318;72833;-78
2021/11/23 01:31:02;;;;;;;9.40;3.70;;;;;;;2.70;92.65;102047.81;102714;1315;72858;-77
2021/11/23 01:33:33;;;;;;;6.20;4.10;;;;;;;2.67;92.50;102046.41;102399;1315;61465;-76
2021/11/23 01:36:42;;;;;;;11.00;3.80;;;;;;;2.65;92.50;102051.55;102562;1315;61397;-77
2021/11/23 01:39:53;;;;;;;;;;;;;;;;;;;;;
2021/11/23 01:43:05;;;;;;;;;;;;;;;;;;;;;
2021/11/23 01:46:17;;;;;;;10.10;3.90;;;;;;;2.64;92.85;102036.43;102428;1317;73013;-77
2021/11/23 01:49:17;;;;;;;;;;;;;;;;;;;;;
2021/11/23 01:52:06;;;;;;;;;;;;;;;;;;;;;
2021/11/23 01:55:32;;;;;;;;;;;;;;;;;;;;;
2021/11/23 01:58:24;;;;;;;12.90;4.60;;;;;;;2.77;92.57;102022.74;102540;1315;71414;-76
2021/11/23 02:01:15;;;;;;;7.10;3.30;;;;;;;2.80;92.50;102024.33;102385;1316;73351;-77
2021/11/23 02:04:04;;;;;;;;;;;;;;;;;;;;;
2021/11/23 02:06:52;;;;;;;15.20;5.10;;;;;;;2.86;92.23;102021.52;102699;1316;61310;-76
2021/11/23 02:09:29;;;;;;;8.50;4.90;;;;;;;2.91;92.25;102018.77;102482;1314;76388;-77
2021/11/23 02:12:05;;;;;;;6.30;3.80;;;;;;;2.96;92.50;102017.07;102625;1316;72468;-76
2021/11/23 02:14:46;;;;;;;;;;;;;;;;;;;;;
2021/11/23 02:18:13;;;;;;;;;;;;;;;;;;;;;
2021/11/23 02:21:24;;;;;;;6.60;3.30;;;;;;;3.12;91.77;102022.73;102322;1316;61345;-76
2021/11/23 02:24:52;;;;;;;9.70;4.10;;;;;;;3.18;91.63;102021.15;102583;1316;74231;-77
2021/11/23 02:28:07;;;;;;;8.50;3.70;;;;;;;3.25;91.74;102011.98;102733;1316;71710;-80
2021/11/23 02:30:52;;;;;;;;;;;;;;;;;;;;;
2021/11/23 02:33:56;;;;;;;9.40;4.40;;;;;;;3.35;91.38;102012.27;102622;1315;61216;-77
2021/11/23 02:36:52;;;;;;;7.00;3.40;;;;;;;3.38;91.12;102007.33;102620;1315;61261;-77
2021/11/23 02:40:09;;;;;;;13.10;4.60;;;;;;;3.41;91.04;102013.95;102615;1316;74941;-78
2021/11/23 02:43:38;;;;;;;12.10;4.90;;;;;;;3.45;90.52;102018.62;102521;1318;70636;-77
2021/11/23 02:46:20;;;;;;;;;;;;;;;;;;;;;
2021/11/23 02:49:21;;;;;;;7.30;4.20;;;;;;;3.48;90.52;102024.35;102481;1316;61477;-77
2021/11/23 02:52:38;;;;;;;;;;;;;;;;;;;;;
2021/11/23 02:55:46;;;;;;;9.20;4.70;;;;;;;3.49;90.59;102021.50;102765;1316;74701;-80
2021/11/23 02:58:35;;;;;;;10.30;3.20;;;;;;;3.50;90.50;102023.41;102696;1316;72453;-80
2021/11/23 03:01:21;;;;;;;8.80;4.70;;;;;;;3.48;90.88;102023.14;102498;1315;72980;-80
2021/11/23 03:04:38;;;;;;;;;;;;;;;;;;;;;
2021/11/23 03:07:28;;;;;;;;;;;;;;;;;;;;;
2021/11/23 03:10:47;;;;;;;17.10;5.50;;;;;;;3.43;92.10;102016.10;102546;1315;75556;-77
2021/11/23 03:13:36;;;;;;;14.00;5.90;;;;;;;3.38;92.64;102008.23;102346;1317;72867;-79
2021/11/23 03:16:24;;;;;;;8.40;4.60;;;;;;;3.36;93.26;102010.25;102471;1316;74573;-76
2021/11/23 03:19:22;;;;;;;10.40;5.80;;;;;;;3.35;93.98;102005.61;102452;1316;61564;-78
2021/11/23 03:22:29;;;;;;;10.60;5.70;;;;;;;3.34;95.12;102005.46;102600;1316;61477;-77
2021/11/23 03:25:49;;;;;;;12.70;4.50;;;;;;;3.34;95.75;102003.36;102456;1318;74961;-81
2021/11/23 03:28:38;;;;;;;9.90;4.70;;;;;;;3.34;96.14;102002.34;102508;1315;71973;-78
2021/11/23 03:31:32;;;;;;;;;;;;;;;;;;;;;
2021/11/23 03:34:42;;;;;;;5.20;2.60;;;;;;;3.40;96.51;102006.02;102624;1316;62904;-76
2021/11/23 03:37:34;;;;;;;5.40;2.80;;;;;;;3.42;97.30;102005.86;102560;1315;61882;-76
2021/11/23 03:40:41;;;;;;;11.40;4.30;;;;;;;3.42;97.18;102000.95;102681;1315;74923;-76
2021/11/23 03:43:31;;;;;;;12.40;5.30;;;;;;;3.42;97.68;101994.81;102675;1315;72581;-78
2021/11/23 03:46:32;;;;;;;9.40;5.20;;;;;;;3.44;97.55;101999.81;102595;1316;74002;-77
2021/11/23 03:49:42;;;;;;;11.80;5.50;;;;;;;3.44;98.30;101996.66;102530;1315;61362;-79
2021/11/23 03:52:16;;;;;;;15.30;4.90;;;;;;;3.44;98.71;101994.18;102499;1316;61305;-78
2021/11/23 03:54:51;;;;;;;10.50;4.90;;;;;;;3.44;99.02;101991.94;102711;1315;74752;-77
2021/11/23 03:58:01;;;;;;;;;;;;;;;;;;;;;
2021/11/23 04:01:12;;;;;;;15.40;5.10;;;;;;;3.43;100.00;101995.10;102645;1315;73127;-79
2021/11/23 04:04:40;;;;;;;7.60;4.50;;;;;;;3.44;100.00;101993.30;102866;1315;63287;-78
2021/11/23 04:07:39;;;;;;;;;;;;;;;;;;;;;
2021/11/23 04:11:07;;;;;;;7.40;4.20;;;;;;;3.49;100.00;101989.19;102473;1315;75655;-77
2021/11/23 04:14:26;;;;;;;7.80;4.90;;;;;;;3.49;100.00;101983.91;102175;1319;71731;-77
2021/11/23 04:17:33;;;;;;;9.10;3.60;;;;;;;3.49;100.00;101979.72;102314;1313;72639;-78
2021/11/23 04:20:43;;;;;;;8.00;3.60;;;;;;;3.50;100.00;101984.17;102387;1315;62560;-76
2021/11/23 04:23:36;;;;;;;;;;;;;;;;;;;;;
2021/11/23 04:26:44;;;;;;;;;;;;;;;;;;;;;
2021/11/23 04:30:13;;;;;;;6.40;4.40;;;;;;;3.59;100.00;101985.58;102205;1317;71394;-80
2021/11/23 04:33:40;;;;;;;12.20;5.60;;;;;;;3.64;100.00;101992.38;102377;1315;73539;-76
2021/11/23 04:36:29;;;;;;;10.00;4.50;;;;;;;3.69;100.00;101991.19;102631;1315;63065;-77
2021/11/23 04:38:56;;;;;;;10.90;6.00;;;;;;;3.72;100.00;101987.74;102332;1318;62359;-79
2021/11/23 04:42:14;;;;;;;5.80;3.00;;;;;;;3.72;100.00;101982.96;102415;1315;74022;-77
2021/11/23 04:45:19;;;;;;;12.90;6.20;;;;;;;3.75;100.00;101991.55;102213;1318;71940;-76
2021/11/23 04:48:39;;;;;;;11.10;5.80;;;;;;;3.76;100.00;101987.79;102443;1315;72978;-78
2021/11/23 04:51:46;;;;;;;8.60;5.40;;;;;;;3.78;100.00;101985.05;102181;1315;63503;-76
2021/11/23 04:55:14;;;;;;;15.00;6.60;;;;;;;3.81;100.00;101982.25;102380;1316;61339;-76
2021/11/23 04:58:41;;;;;;;10.40;5.50;;;;;;;3.84;100.00;101984.45;102295;1315;77191;-81
2021/11/23 05:01:52;;;;;;;;;;;;;;;;;;;;;
2021/11/23 05:05:22;;;;;;;10.50;6.10;;;;;;;3.93;100.00;101982.85;102811;1315;73979;-76
2021/11/23 05:08:49;;;;;;;14.30;6.60;;;;;;;3.96;100.00;101981.10;102140;1313;63130;-77
2021/11/23 05:11:56;;;;;;;14.60;6.30;;;;;;;3.98;100.00;101977.27;102253;1315;61674;-76
2021/11/23 05:15:25;;;;;;;10.40;5.70;;;;;;;4.00;100.00;101972.77;102510;1315;75160;-74
2021/11/23 05:18:27;;;;;;;;;;;;;;;;;;;;;
2021/11/23 05:21:41;;;;;;;14.00;6.20;;;;;;;4.03;100.00;101970.11;102274;1315;73964;-77
2021/11/23 05:24:50;;;;;;;9.40;6.60;;;;;;;4.04;100.00;101971.45;102955;1316;61271;-76
2021/11/23 05:28:19;;;;;;;16.10;7.00;;;;;;;4.04;100.00;101977.70;102257;1318;61381;-77
2021/11/23 05:31:29;;;;;;;10.60;6.50;;;;;;;4.05;100.00;101971.73;102344;1315;74687;-78
2021/11/23 05:34:50;;;;;;;16.10;7.10;;;;;;;4.05;100.00;101975.24;102413;1316;71688;-77
2021/11/23 05:37:29;;;;;;;11.80;7.30;;;;;;;4.03;100.00;101975.33;102296;1316;73990;-78
2021/11/23 05:40:26;;;;;;;;;;;;;;;;;;;;;
2021/11/23 05:43:36;;;;;;;;;;;;;;;;;;;;;
2021/11/23 05:46:25;;;;;;;13.30;7.60;;;;;;;4.00;100.00;101968.36;102362;1313;76926;-77
2021/11/23 05:49:01;;;;;;;11.40;6.80;;;;;;;3.99;100.00;101973.84;102330;1316;71682;-78
2021/11/23 05:52:04;;;;;;;;;;;;;;;;;;;;;
2021/11/23 05:55:33;;;;;;;13.90;8.40;;;;;;;4.01;100.00;101974.96;102523;1315;61970;-77
2021/11/23 05:58:46;;;;;;;14.50;7.20;;;;;;;4.05;100.00;101973.08;102207;1315;61282;-77
2021/11/23 06:01:32;;;;;;;9.50;6.30;;;;;;;4.09;100.00;101975.14;102455;1315;76402;-79
2021/11/23 06:04:30;;;;;;;;;;;;;;;;;;;;;
2021/11/23 06:07:37;;;;;;;10.20;5.00;;;;;;;4.18;100.00;101973.49;102366;1315;73179;-77
2021/11/23 06:11:06;;;;;;;6.30;4.10;;;;;;;4.28;100.00;101977.92;102510;1315;61405;-78
2021/11/23 06:13:57;;;;;;;11.20;6.40;;;;;;;4.44;100.00;101983.49;102224;1318;61661;-78
2021/11/23 06:16:48;;;;;;;6.90;4.90;;;;;;;4.56;100.00;101981.45;102425;1315;75932;-77
2021/11/23 06:19:20;;;;;;;7.50;4.70;;;;;;;4.67;100.00;101989.98;102376;1318;71490;-77
2021/11/23 06:22:24;;;;;;;;;;;;;;;;;;;;;
2021/11/23 06:25:23;;;;;;;6.60;4.00;;;;;;;4.81;100.00;101992.52;99784;1318;3550842;-76
2021/11/23 06:28:34;;;;;;;8.40;4.70;;;;;;;4.86;100.00;101995.71;102324;1316;61900;-77
2021/11/23 06:31:41;;;;;;;7.40;5.20;;;;;;;4.90;100.00;102001.02;102375;1317;74013;-78
2021/11/23 06:34:14;;;;;;;8.20;5.30;;;;;;;4.93;100.00;102006.48;102282;1318;71520;-77
2021/11/23 06:37:43;;;;;;;9.20;5.40;;;;;;;4.94;100.00;102010.11;102232;1318;72115;-76
2021/11/23 06:40:59;;;;;;;;;;;;;;;;;;;;;
2021/11/23 06:44:01;;;;;;;;;;;;;;;;;;;;;
2021/11/23 06:47:22;;;;;;;;;;;;;;;;;;;;;
2021/11/23 06:51:13;;;;;;;8.10;4.30;;;;;;;4.90;100.00;102023.66;102098;1318;71217;-78
2021/11/23 06:53:20;;;;;;;10.90;6.30;;;;;;;4.88;100.00;102027.98;102133;1316;74791;-77
2021/11/23 06:56:54;;;;;;;10.60;6.60;;;;;;;4.89;100.00;102031.98;102388;1318;62231;-77
2021/11/23 06:59:55;;;;;;;10.40;6.50;;;;;;;4.91;100.00;102037.79;102280;1315;61394;-78
2021/11/23 07:02:21;;;;;;;12.40;6.80;;;;;;;4.92;100.00;102044.77;102436;1316;75194;-77
2021/11/23 07:05:39;;;;;;;;;;;;;;;;;;;;;
2021/11/23 07:08:34;;;;;;;13.50;7.80;;;;;;;4.93;100.00;102046.25;102107;1318;73755;-78
2021/11/23 07:11:08;;;;;;;12.70;8.10;;;;;;;4.94;100.00;102042.50;102344;1317;61510;-76
2021/11/23 07:14:25;;;;;;;;;;;;;;;;;;;;;
2021/11/23 07:17:43;;;;;;;;;;;;;;;4.97;100.00;102046.69;102238;1317;75870;-79
2021/11/23 07:20:38;;;;;;;9.50;5.80;;;;;;;4.98;100.00;102050.97;102261;1318;72558;-77
2021/11/23 07:24:00;;;;;;;12.20;6.70;;;;;;;4.97;100.00;102058.61;102125;1319;72059;-78
2021/11/23 07:27:27;;;;;;;10.30;6.20;;;;;;;4.96;100.00;102060.26;102213;1318;63211;-78
2021/11/23 07:30:28;;;;;;;9.50;5.80;;;;;;;4.95;100.00;102057.73;102862;1318;62059;-77
2021/11/23 07:33:16;;;;;;;;;;;;;;;;;;;;;
2021/11/23 07:36:46;;;;;;;15.70;8.70;;;;;;;4.95;100.00;102052.30;102205;1318;71384;-77
2021/11/23 07:39:53;;;;;;;15.00;7.80;;;;;;;4.95;100.00;102056.48;102298;1317;73919;-76
2021/11/23 07:43:01;;;;;;;9.10;5.10;;;;;;;4.97;100.00;102054.61;102353;1314;64425;-77
2021/11/23 07:46:35;;;;;;;13.00;8.20;;;;;;;4.98;100.00;102063.10;102267;1317;61295;-78
2021/11/23 07:49:28;;;;;;;10.10;5.90;;;;;;;5.00;100.00;102064.55;102421;1319;73917;-78
2021/11/23 07:52:17;;;;;;;12.20;5.00;;;;;;;5.00;100.00;102069.95;102320;1317;71754;-77
2021/11/23 07:55:33;;;;;;;;;;;;;;;;;;;;;
2021/11/23 07:58:10;;;;;;;8.30;4.20;;;;;;;5.04;100.00;102074.75;102071;1318;63763;-77
2021/11/23 08:01:28;;;;;;;13.70;7.30;;;;;;;5.05;100.00;102080.33;102405;1315;61701;-77
2021/11/23 08:04:04;;;;;;;;;;;;;;;;;;;;;
2021/11/23 08:06:51;;;;;;;10.60;6.30;;;;;;;5.07;100.00;102082.11;102405;1317;71478;-77
2021/11/23 08:09:43;;;;;;;13.70;8.50;;;;;;;5.07;100.00;102091.41;102364;1318;73321;-77
2021/11/23 08:12:33;;;;;;;;;;;;;;;;;;;;;
2021/11/23 08:15:06;;;;;;;8.60;4.40;;;;;;;5.09;100.00;102091.29;102418;1319;61188;-78
2021/11/23 08:17:48;;;;;;;15.10;9.80;;;;;;;5.09;100.00;102092.13;102445;1319;74947;-78
2021/11/23 08:21:12;;;;;;;12.30;5.90;;;;;;;5.12;100.00;102096.15;102491;1319;71478;-78
2021/11/23 08:24:30;;;;;;;;;;;;;;;;;;;;;
2021/11/23 08:27:57;;;;;;;;;;;;;;;;;;;;;
2021/11/23 08:30:24;;;;;;;11.90;5.10;;;;;;;5.19;100.00;102086.92;102180;1317;61799;-76
2021/11/23 08:33:04;;;;;;;;;;;;;;;;;;;;;
2021/11/23 08:36:42;;;;;;;;;;;;;;;;;;;;;
2021/11/23 08:40:18;;;;;;;10.10;5.20;;;;;;;5.22;100.00;102097.20;102297;1317;71602;-78
2021/11/23 08:43:46;;;;;;;15.20;8.40;;;;;;;5.23;100.00;102095.73;101968;1318;62335;-79
2021/11/23 08:46:51;;;;;;;10.50;5.50;;;;;;;5.26;100.00;102097.46;102268;1318;61375;-78
2021/11/23 08:50:02;;;;;;;19.80;8.60;;;;;;;5.29;100.00;102100.27;102225;1318;75116;-78
2021/11/23 08:53:29;;;;;;;11.60;5.60;;;;;;;5.32;100.00;102103.02;102357;1318;71522;-78
2021/11/23 08:56:43;;;;;;;13.50;8.30;;;;;;;5.32;100.00;102102.69;102315;1318;73197;-76
2021/11/23 09:00:12;;;;;;;14.80;7.80;;;;;;;5.34;100.00;102106.26;102300;1317;62767;-79
2021/11/23 09:03:00;;;;;;;;;;;;;;;;;;;;;
2021/11/23 09:06:09;;;;;;;15.00;8.10;;;;;;;5.38;100.00;102112.83;102293;1322;74797;-76
2021/11/23 09:08:57;;;;;;;12.90;8.60;;;;;;;5.41;100.00;102110.17;102372;1316;74040;-78
2021/11/23 09:11:38;;;;;;;;;;;;;;;;;;;;;
2021/11/23 09:14:33;;;;;;;;;;;;;;;;;;;;;
2021/11/23 09:17:41;;;;;;;12.60;6.90;;;;;;;5.43;100.00;102127.38;102287;1317;63806;-77
2021/11/23 09:20:19;;;;;;;10.40;5.70;;;;;;;5.44;100.00;102126.03;102306;1317;74676;-77
2021/11/23 09:23:47;;;;;;;11.40;5.40;;;;;;;5.41;100.00;102123.63;102113;1318;72629;-79
2021/11/23 09:26:51;;;;;;;9.70;6.20;;;;;;;5.39;100.00;102123.43;102083;1318;72518;-78
2021/11/23 09:29:59;;;;;;;13.60;7.50;;;;;;;5.38;100.00;102129.81;102229;1316;62464;-77
2021/11/23 09:33:30;;;;;;;14.70;8.30;;;;;;;5.38;100.00;102129.98;102370;1318;60550;-77
2021/11/23 09:36:25;;;;;;;17.60;7.50;;;;;;;5.41;100.00;102132.10;102224;1319;75882;-77
2021/11/23 09:39:26;;;;;;;;;;;;;;;5.44;100.00;102129.94;102365;1319;71601;-78
2021/11/23 09:42:55;;;;;;;12.60;6.80;;;;;;;5.48;100.00;102131.39;102357;1316;72012;-78
2021/11/23 09:46:05;;;;;;;12.80;6.50;;;;;;;5.58;100.00;102130.67;102290;1315;64311;-77
2021/11/23 09:49:31;;;;;;;13.70;7.00;;;;;;;5.64;100.00;102126.91;102459;1319;61402;-77
2021/11/23 09:52:31;;;;;;;11.90;6.80;;;;;;;5.70;100.00;102127.90;102004;1318;77601;-78
2021/11/23 09:55:58;;;;;;;14.10;7.10;;;;;;;5.78;100.00;102129.34;102153;1317;72506;-77
2021/11/23 09:58:54;;;;;;;;;;;;;;;;;;;;;
2021/11/23 10:01:54;;;;;;;13.90;6.60;;;;;;;5.90;100.00;102127.61;102349;1317;62832;-78
2021/11/23 10:04:48;;;;;;;12.80;6.60;;;;;;;5.96;100.00;102126.52;102203;1318;61349;-78
2021/11/23 10:08:16;;;;;;;5.20;3.00;;;;;;;6.01;100.00;102116.77;102302;1318;75000;-78
2021/11/23 10:11:21;;;;;;;8.40;4.50;;;;;;;6.08;100.00;102114.34;102022;1316;71441;-79
2021/11/23 10:14:39;;;;;;;;;;;;;;;;;;;;;
2021/11/23 10:18:08;;;;;;;8.20;4.30;;;;;;;6.18;100.00;102119.80;102057;1318;61762;-77
2021/11/23 10:21:16;;;;;;;12.10;6.40;;;;;;;6.23;100.00;102123.11;102229;1315;61301;-78
2021/11/23 10:24:43;;;;;;;12.50;5.70;;;;;;;6.23;100.00;102125.80;102207;1319;75655;-78
2021/11/23 10:28:21;;;;;;;9.60;5.70;;;;;;;6.19;100.00;102119.40;101979;1318;73062;-77
2021/11/23 10:31:47;;;;;;;11.40;5.80;;;;;;;6.21;100.00;102120.15;101843;1320;73036;-76
2021/11/23 10:35:03;;;;;;;;;;;;;;;;;;;;;
2021/11/23 10:38:11;;;;;;;;;;;;;;;;;;;;;
2021/11/23 10:41:05;;;;;;;6.90;4.20;;;;;;;6.47;100.00;102108.35;102226;1318;75303;-77
2021/11/23 10:43:32;;;;;;;9.80;6.00;;;;;;;6.50;100.00;102108.13;102295;1318;71455;-77
2021/11/23 10:46:32;;;;;;;;;;;;;;;;;;;;;
2021/11/23 10:50:11;;;;;;;8.40;4.80;;;;;;;6.49;100.00;102106.61;102374;1316;62873;-78
2021/11/23 10:52:36;;;;;;;9.40;5.40;;;;;;;6.51;100.00;102105.29;102006;1318;61875;-76
2021/11/23 10:55:52;;;;;;;8.00;4.90;;;;;;;6.52;100.00;102108.33;102332;1317;76156;-78
2021/11/23 10:58:44;;;;;;;8.90;4.70;;;;;;;6.52;100.00;102105.00;102321;1317;73084;-78
2021/11/23 11:01:11;;;;;;;10.10;5.00;;;;;;;6.49;100.00;102105.39;102391;1319;74035;-78
2021/11/23 11:03:43;;;;;;;8.90;5.00;;;;;;;6.46;100.00;102101.42;102497;1316;62186;-78
2021/11/23 11:06:53;;;;;;;13.90;5.50;;;;;;;6.48;100.00;102097.07;102399;1318;61818;-77
2021/11/23 11:09:34;;;;;;;;;;;;;;;;;;;;;
2021/11/23 11:12:32;;;;;;;;;;;;;;;;;;;;;
2021/11/23 11:16:01;;;;;;;10.30;4.60;;;;;;;6.49;100.00;102098.21;102293;1317;74278;-79
2021/11/23 11:19:00;;;;;;;6.80;3.10;;;;;;;6.47;100.00;102090.98;102419;1318;63144;-78
2021/11/23 11:21:50;;;;;;;7.60;4.30;;;;;;;6.51;100.00;102094.88;102456;1317;61894;-77
2021/11/23 11:27:54;;;;;;;7.40;4.50;;;;;;;6.62;100.00;102100.58;102821;1318;71172;-79
2021/11/23 11:30:37;;;;;;;11.10;5.30;;;;;;;6.65;100.00;102096.52;102295;1318;72913;-78
2021/11/23 11:34:05;;;;;;;7.10;4.30;;;;;;;6.78;100.00;102086.75;102482;1317;61484;-79
2021/11/23 11:37:19;;;;;;;;;;;;;;;;;;;;;
2021/11/23 11:40:16;;;;;;;6.80;4.30;;;;;;;6.91;100.00;102092.28;102360;1318;75934;-78
2021/11/23 11:42:41;;;;;;;8.20;3.60;;;;;;;6.90;99.71;102091.77;102468;1315;71475;-78
2021/11/23 11:45:20;;;;;;;11.40;4.80;;;;;;;6.94;99.58;102090.09;102578;1317;72760;-78
2021/11/23 11:48:18;;;;;;;6.10;3.70;;;;;;;6.97;99.52;102085.46;103558;1319;62239;-79
2021/11/23 11:51:42;;;;;;;9.50;4.30;;;;;;;6.99;99.07;102087.84;101999;1316;61339;-78
2021/11/23 11:54:52;;;;;;;8.60;4.20;;;;;;;6.99;98.66;102089.59;102364;1318;75343;-77
2021/11/23 11:57:49;;;;;;;13.20;3.60;;;;;;;6.94;98.99;102091.29;102426;1318;72330;-77
2021/11/23 12:00:50;;;;;;;6.60;3.90;;;;;;;6.86;99.17;102095.94;102242;1318;72262;-76
2021/11/23 12:03:18;;;;;;;8.70;2.70;;;;;;;6.77;99.80;102094.52;102207;1318;63484;-77
2021/11/23 12:06:22;;;;;;;8.80;3.90;;;;;;;6.71;100.00;102095.52;102452;1316;61222;-77
2021/11/23 12:08:57;;;;;;;10.10;4.60;;;;;;;6.73;100.00;102096.61;102397;1318;75063;-78
2021/11/23 12:11:49;;;;;;;7.00;3.90;;;;;;;6.76;100.00;102089.56;102499;1319;72491;-77
2021/11/23 12:14:22;;;;;;;7.70;4.00;;;;;;;6.77;100.00;102089.28;102539;1317;72890;-77
2021/11/23 12:21:17;;;;;;;10.00;4.40;;;;;;;6.76;100.00;102084.98;102381;1317;60640;-78
2021/11/23 12:24:10;;;;;;;6.70;4.20;;;;;;;6.78;100.00;102083.73;102770;1317;76222;-78
2021/11/23 12:26:38;;;;;;;10.20;3.50;;;;;;;6.83;100.00;102085.63;102737;1317;73492;-78
2021/11/23 12:29:32;;;;;;;9.40;4.80;;;;;;;6.86;100.00;102086.62;102822;1316;73301;-77
2021/11/23 12:32:08;;;;;;;5.10;3.20;;;;;;;6.91;100.00;102084.14;102307;1322;63247;-78
2021/11/23 12:35:07;;;;;;;4.70;2.90;;;;;;;6.90;100.00;102077.92;102561;1316;59454;-78
2021/11/23 12:37:38;;;;;;;7.40;3.20;;;;;;;6.86;99.93;102076.67;102463;1318;74950;-78
2021/11/23 12:40:21;;;;;;;11.70;4.70;;;;;;;6.88;100.00;102073.31;102591;1318;72753;-79
2021/11/23 12:43:17;;;;;;;;;;;;;;;;;;;;;
2021/11/23 12:46:33;;;;;;;6.00;3.40;;;;;;;6.96;100.00;102067.63;102589;1318;63612;-77
2021/11/23 12:49:00;;;;;;;8.10;4.30;;;;;;;7.04;99.89;102064.34;102378;1317;61302;-78
2021/11/23 12:51:31;;;;;;;11.10;4.90;;;;;;;7.07;100.00;102066.99;102506;1317;74989;-76
2021/11/23 12:54:38;;;;;;;9.10;4.60;;;;;;;7.05;99.91;102068.14;102457;1317;71454;-77
2021/11/23 12:57:33;;;;;;;;;;;;;;;;;;;;;
2021/11/23 13:00:23;;;;;;;8.20;4.00;;;;;;;7.04;99.87;102059.92;102544;1317;61424;-77
2021/11/23 13:03:27;;;;;;;;;;;;;;;;;;;;;
2021/11/23 13:06:22;;;;;;;7.60;3.90;;;;;;;7.41;98.96;102067.15;102478;1320;75576;-78
2021/11/23 13:09:20;;;;;;;8.30;4.40;;;;;;;7.53;97.19;102067.55;102655;1315;71660;-78
2021/11/23 13:12:48;;;;;;;9.30;4.00;;;;;;;7.57;97.49;102060.94;102347;1316;72709;-79
2021/11/23 13:15:29;;;;;;;8.30;4.10;;;;;;;7.51;96.81;102061.91;102508;1318;62249;-78
2021/11/23 13:18:03;;;;;;;10.50;4.90;;;;;;;7.51;96.77;102058.81;102436;1317;61304;-76
2021/11/23 13:20:56;;;;;;;;;;;;;;;;;;;;;
2021/11/23 13:24:09;;;;;;;9.60;5.20;;;;;;;7.47;96.59;102069.32;102426;1316;72267;-77
2021/11/23 13:27:36;;;;;;;;;;;;;;;;;;;;;
2021/11/23 13:30:56;;;;;;;8.70;3.40;;;;;;;7.34;96.85;102065.21;102492;1316;62318;-78
2021/11/23 13:33:56;;;;;;;8.70;4.50;;;;;;;7.32;96.99;102060.75;101966;1322;61957;-77
2021/11/23 13:36:56;;;;;;;10.50;5.30;;;;;;;7.28;96.52;102064.14;102445;1321;76456;-77
2021/11/23 13:39:26;;;;;;;7.50;4.20;;;;;;;7.23;97.38;102057.06;102515;1318;70729;-77
2021/11/23 13:41:58;;;;;;;10.20;4.90;;;;;;;7.20;97.23;102050.66;102690;1316;74453;-79
2021/11/23 13:44:30;;;;;;;7.60;4.30;;;;;;;7.15;97.48;102049.83;103659;1320;62384;-76
2021/11/23 13:47:04;;;;;;;10.20;5.00;;;;;;;7.12;97.53;102050.59;104395;1318;60817;-77
2021/11/23 13:49:38;;;;;;;9.90;4.80;;;;;;;7.11;97.57;102052.02;104461;1320;74981;-78
2021/11/23 13:52:15;;;;;;;7.60;4.00;;;;;;;7.16;97.50;102046.87;103873;1318;73432;-77
2021/11/23 13:55:30;;;;;;;8.30;4.80;;;;;;;7.21;97.12;102047.73;102692;1316;74417;-78
2021/11/23 13:57:57;;;;;;;9.90;5.30;;;;;;;7.16;96.98;102043.02;102553;1317;61221;-78
2021/11/23 14:00:30;;;;;;;7.20;4.30;;;;;;;7.16;97.11;102046.20;102559;1315;61418;-78
2021/11/23 14:03:12;;;;;;;;;;;;;;;7.14;97.55;102046.45;102312;1318;76261;-77
2021/11/23 14:06:14;;;;;;;;;;;;;;;;;;;;;
2021/11/23 14:08:41;;;;;;;10.10;4.70;;;;;;;7.06;97.87;102055.81;102438;1317;74039;-78
2021/11/23 14:11:13;;;;;;;8.30;4.50;;;;;;;7.03;97.86;102059.55;102392;1318;62991;-78
2021/11/23 14:14:14;;;;;;;8.90;4.70;;;;;;;6.99;98.21;102059.16;102448;1319;61196;-79
2021/11/23 14:17:05;;;;;;;11.60;5.00;;;;;;;6.93;98.53;102058.86;102716;1316;74956;-79
2021/11/23 14:20:22;;;;;;;9.70;4.90;;;;;;;6.89;99.39;102060.61;102759;1318;70447;-76
2021/11/23 14:22:57;;;;;;;11.40;5.30;;;;;;;6.86;99.58;102058.73;102341;1320;73020;-78
2021/11/23 14:25:59;;;;;;;9.70;5.10;;;;;;;6.83;99.95;102058.97;98527;1317;5503511;-77
2021/11/23 14:28:51;;;;;;;10.50;5.60;;;;;;;6.79;99.97;102060.86;102410;1317;76188;-78
2021/11/23 14:31:29;;;;;;;9.70;5.20;;;;;;;6.77;100.00;102057.09;102629;1316;72645;-78
2021/11/23 14:34:21;;;;;;;12.20;6.00;;;;;;;6.75;100.00;102052.88;103305;1318;72933;-78
2021/11/23 14:37:23;;;;;;;;;;;;;;;;;;;;;
2021/11/23 14:39:54;;;;;;;10.70;4.60;;;;;;;6.67;100.00;102055.59;102480;1318;60634;-78
2021/11/23 14:42:27;;;;;;;11.00;5.70;;;;;;;6.62;100.00;102061.07;102377;1320;74172;-79
2021/11/23 14:45:01;;;;;;;8.50;4.50;;;;;;;6.57;100.00;102060.89;102660;1318;72320;-79
2021/11/23 14:47:38;;;;;;;;;;;;;;;;;;;;;
2021/11/23 14:50:18;;;;;;;7.20;3.90;;;;;;;6.46;100.00;102061.00;102527;1318;63269;-79
2021/11/23 14:53:04;;;;;;;;;;;;;;;;;;;;;
2021/11/23 14:55:35;;;;;;;14.20;6.80;;;;;;;6.39;100.00;102062.75;102317;1318;74997;-76
2021/11/23 14:58:28;;;;;;;12.00;6.70;;;;;;;6.36;100.00;102060.67;102526;1317;71653;-77
2021/11/23 15:00:58;;;;;;;8.50;4.60;;;;;;;6.34;100.00;102059.81;102472;1316;73176;-77
2021/11/23 15:04:09;;;;;;;9.90;5.40;;;;;;;6.33;100.00;102059.33;102764;1316;62244;-78
2021/11/23 15:06:35;;;;;;;11.50;6.90;;;;;;;6.32;100.00;102062.73;102150;1318;61666;-78
2021/11/23 15:09:45;;;;;;;13.80;5.20;;;;;;;6.31;100.00;102062.25;102501;1315;77646;-77
2021/11/23 15:12:31;;;;;;;10.30;6.00;;;;;;;6.30;100.00;102060.79;102425;1318;71557;-78
2021/11/23 15:15:26;;;;;;;9.00;5.20;;;;;;;6.30;100.00;102063.42;102497;1316;73033;-78
2021/11/23 15:18:35;;;;;;;;;;;;;;;;;;;;;
2021/11/23 15:21:41;;;;;;;9.20;4.60;;;;;;;6.25;100.00;102060.29;102429;1318;61225;-77
2021/11/23 15:24:18;;;;;;;12.30;5.50;;;;;;;6.22;100.00;102060.01;102305;1319;76388;-78
2021/11/23 15:27:30;;;;;;;11.30;5.60;;;;;;;6.20;100.00;102061.84;102531;1316;71398;-79
2021/11/23 15:30:09;;;;;;;11.20;5.60;;;;;;;6.19;100.00;102057.23;102161;1315;72636;-78
2021/11/23 15:32:36;;;;;;;10.50;6.00;;;;;;;6.18;100.00;102052.40;102381;1316;62562;-78
2021/11/23 15:35:24;;;;;;;9.60;5.90;;;;;;;6.17;100.00;102054.91;103675;1316;61405;-77
2021/11/23 15:37:54;;;;;;;9.00;5.50;;;;;;;6.16;100.00;102049.20;102511;1315;77731;-77
2021/11/23 15:40:23;;;;;;;11.00;4.80;;;;;;;6.16;100.00;102051.50;102662;1317;73011;-77
2021/11/23 15:43:03;;;;;;;9.50;5.70;;;;;;;6.16;100.00;102056.75;102220;1319;74391;-76
2021/11/23 15:45:51;;;;;;;12.60;6.70;;;;;;;6.15;100.00;102056.44;102675;1316;61465;-77